sensor_id;sensor_type;location;lat;lon;timestamp;P1;durP1;ratioP1;P2;durP2;ratioP2
23722;SDS011;12042;52.136;5.584;2022-10-29T06:19:48;20.00;;;15.73;;
23722;SDS011;12042;52.136;5.584;2022-10-29T06:22:14;20.83;;;15.38;;
23722;SDS011;12042;52.136;5.584;2022-10-29T06:24:40;21.38;;;16.90;;
23722;SDS011;12042;52.136;5.584;2022-10-29T06:27:05;20.02;;;16.27;;
23722;SDS011;12042;52.136;5.584;2022-10-29T06:29:31;19.35;;;15.85;;
23722;SDS011;12042;52.136;5.584;2022-10-29T06:31:56;23.33;;;16.35;;
23722;SDS011;12042;52.136;5.584;2022-10-29T06:34:22;22.75;;;16.30;;
23722;SDS011;12042;52.136;5.584;2022-10-29T06:36:47;21.80;;;15.93;;
23722;SDS011;12042;52.136;5.584;2022-10-29T06:39:13;22.50;;;15.52;;
23722;SDS011;12042;52.136;5.584;2022-10-29T06:41:38;20.20;;;15.75;;
23722;SDS011;12042;52.136;5.584;2022-10-29T06:44:04;19.80;;;15.15;;
23722;SDS011;12042;52.136;5.584;2022-10-29T06:46:29;20.67;;;15.23;;
23722;SDS011;12042;52.136;5.584;2022-10-29T06:48:55;21.02;;;14.75;;
23722;SDS011;12042;52.136;5.584;2022-10-29T06:51:20;21.25;;;13.60;;
23722;SDS011;12042;52.136;5.584;2022-10-29T06:53:47;21.75;;;15.00;;
23722;SDS011;12042;52.136;5.584;2022-10-29T06:56:13;17.23;;;14.85;;
23722;SDS011;12042;52.136;5.584;2022-10-29T06:58:38;24.02;;;15.93;;
23722;SDS011;12042;52.136;5.584;2022-10-29T07:01:04;20.95;;;14.90;;
23722;SDS011;12042;52.136;5.584;2022-10-29T07:03:29;22.50;;;15.07;;
23722;SDS011;12042;52.136;5.584;2022-10-29T07:05:56;22.13;;;14.30;;
23722;SDS011;12042;52.136;5.584;2022-10-29T07:08:23;25.90;;;15.02;;
23722;SDS011;12042;52.136;5.584;2022-10-29T07:10:49;21.73;;;16.30;;
23722;SDS011;12042;52.136;5.584;2022-10-29T07:13:15;24.33;;;16.40;;
23722;SDS011;12042;52.136;5.584;2022-10-29T07:15:41;24.23;;;16.73;;
23722;SDS011;12042;52.136;5.584;2022-10-29T07:18:07;23.98;;;16.88;;
23722;SDS011;12042;52.136;5.584;2022-10-29T07:20:36;23.08;;;16.85;;
23722;SDS011;12042;52.136;5.584;2022-10-29T07:23:03;29.02;;;17.55;;
23722;SDS011;12042;52.136;5.584;2022-10-29T07:25:29;26.40;;;17.42;;
23722;SDS011;12042;52.136;5.584;2022-10-29T07:28:06;28.65;;;17.42;;
23722;SDS011;12042;52.136;5.584;2022-10-29T07:30:42;26.90;;;17.95;;
23722;SDS011;12042;52.136;5.584;2022-10-29T07:33:08;33.40;;;19.92;;
23722;SDS011;12042;52.136;5.584;2022-10-29T07:35:34;30.83;;;19.75;;
23722;SDS011;12042;52.136;5.584;2022-10-29T07:38:01;34.47;;;22.25;;
23722;SDS011;12042;52.136;5.584;2022-10-29T07:40:28;37.35;;;22.13;;
23722;SDS011;12042;52.136;5.584;2022-10-29T07:42:53;40.42;;;24.27;;
23722;SDS011;12042;52.136;5.584;2022-10-29T07:45:19;32.13;;;22.10;;
23722;SDS011;12042;52.136;5.584;2022-10-29T07:47:45;44.63;;;21.90;;
23722;SDS011;12042;52.136;5.584;2022-10-29T07:50:11;35.42;;;21.13;;
23722;SDS011;12042;52.136;5.584;2022-10-29T07:52:38;41.38;;;21.48;;
23722;SDS011;12042;52.136;5.584;2022-10-29T07:55:04;40.00;;;21.92;;
23722;SDS011;12042;52.136;5.584;2022-10-29T07:57:30;33.10;;;21.08;;
23722;SDS011;12042;52.136;5.584;2022-10-29T07:59:56;33.67;;;21.10;;
23722;SDS011;12042;52.136;5.584;2022-10-29T08:02:21;38.33;;;22.20;;
23722;SDS011;12042;52.136;5.584;2022-10-29T08:04:47;34.10;;;22.08;;
23722;SDS011;12042;52.136;5.584;2022-10-29T08:07:12;34.20;;;22.63;;
23722;SDS011;12042;52.136;5.584;2022-10-29T08:09:38;35.80;;;22.65;;
23722;SDS011;12042;52.136;5.584;2022-10-29T08:12:04;38.60;;;22.95;;
23722;SDS011;12042;52.136;5.584;2022-10-29T08:14:32;46.10;;;23.67;;
23722;SDS011;12042;52.136;5.584;2022-10-29T08:16:58;39.83;;;23.90;;
23722;SDS011;12042;52.136;5.584;2022-10-29T08:19:23;40.58;;;23.60;;
23722;SDS011;12042;52.136;5.584;2022-10-29T08:21:49;47.90;;;23.70;;
23722;SDS011;12042;52.136;5.584;2022-10-29T08:24:14;43.13;;;24.25;;
23722;SDS011;12042;52.136;5.584;2022-10-29T08:26:40;42.05;;;23.85;;
23722;SDS011;12042;52.136;5.584;2022-10-29T08:29:06;38.70;;;22.10;;
23722;SDS011;12042;52.136;5.584;2022-10-29T08:31:31;42.17;;;22.27;;
23722;SDS011;12042;52.136;5.584;2022-10-29T08:33:57;36.88;;;21.05;;
23722;SDS011;12042;52.136;5.584;2022-10-29T08:36:22;34.85;;;21.27;;
23722;SDS011;12042;52.136;5.584;2022-10-29T08:38:48;34.38;;;21.00;;
23722;SDS011;12042;52.136;5.584;2022-10-29T08:44:26;40.45;;;20.38;;
23722;SDS011;12042;52.136;5.584;2022-10-29T08:47:18;30.70;;;19.15;;
23722;SDS011;12042;52.136;5.584;2022-10-29T08:49:46;32.22;;;17.65;;
23722;SDS011;12042;52.136;5.584;2022-10-29T08:52:30;27.90;;;17.73;;
23722;SDS011;12042;52.136;5.584;2022-10-29T08:55:17;27.95;;;16.60;;
23722;SDS011;12042;52.136;5.584;2022-10-29T08:57:55;33.53;;;16.55;;
23722;SDS011;12042;52.136;5.584;2022-10-29T09:00:34;30.98;;;15.98;;
23722;SDS011;12042;52.136;5.584;2022-10-29T09:03:07;31.80;;;15.95;;
23722;SDS011;12042;52.136;5.584;2022-10-29T09:05:44;35.25;;;15.45;;
23722;SDS011;12042;52.136;5.584;2022-10-29T09:10:53;25.38;;;15.60;;
23722;SDS011;12042;52.136;5.584;2022-10-29T09:13:23;27.40;;;15.65;;
23722;SDS011;12042;52.136;5.584;2022-10-29T09:16:12;29.65;;;14.98;;
23722;SDS011;12042;52.136;5.584;2022-10-29T09:27:13;24.50;;;14.15;;
23722;SDS011;12042;52.136;5.584;2022-10-29T09:35:04;24.30;;;14.43;;
23722;SDS011;12042;52.136;5.584;2022-10-29T09:46:23;23.33;;;13.18;;
23722;SDS011;12042;52.136;5.584;2022-10-29T09:54:15;18.55;;;12.23;;
23722;SDS011;12042;52.136;5.584;2022-10-29T09:56:41;24.58;;;12.40;;
23722;SDS011;12042;52.136;5.584;2022-10-29T09:59:21;27.77;;;12.05;;
23722;SDS011;12042;52.136;5.584;2022-10-29T10:01:53;21.02;;;11.52;;
23722;SDS011;12042;52.136;5.584;2022-10-29T10:04:26;18.23;;;10.57;;
23722;SDS011;12042;52.136;5.584;2022-10-29T10:07:10;19.67;;;10.23;;
23722;SDS011;12042;52.136;5.584;2022-10-29T10:09:50;22.42;;;9.77;;
23722;SDS011;12042;52.136;5.584;2022-10-29T10:12:18;19.33;;;9.98;;
23722;SDS011;12042;52.136;5.584;2022-10-29T10:14:47;19.92;;;9.55;;
23722;SDS011;12042;52.136;5.584;2022-10-29T10:17:13;13.10;;;9.02;;
23722;SDS011;12042;52.136;5.584;2022-10-29T10:19:43;17.92;;;8.45;;
23722;SDS011;12042;52.136;5.584;2022-10-29T10:22:17;18.05;;;9.35;;
23722;SDS011;12042;52.136;5.584;2022-10-29T10:24:44;13.80;;;7.65;;
23722;SDS011;12042;52.136;5.584;2022-10-29T10:29:42;18.65;;;7.28;;
23722;SDS011;12042;52.136;5.584;2022-10-29T10:32:15;15.10;;;7.07;;
23722;SDS011;12042;52.136;5.584;2022-10-29T10:34:41;10.13;;;6.38;;
23722;SDS011;12042;52.136;5.584;2022-10-29T10:39:51;12.23;;;6.75;;
23722;SDS011;12042;52.136;5.584;2022-10-29T10:42:25;12.80;;;6.65;;
23722;SDS011;12042;52.136;5.584;2022-10-29T10:45:16;11.43;;;6.10;;
23722;SDS011;12042;52.136;5.584;2022-10-29T10:47:54;10.20;;;6.07;;
23722;SDS011;12042;52.136;5.584;2022-10-29T10:52:51;15.27;;;6.45;;
23722;SDS011;12042;52.136;5.584;2022-10-29T10:55:22;15.80;;;6.93;;
23722;SDS011;12042;52.136;5.584;2022-10-29T11:00:26;8.23;;;6.35;;
23722;SDS011;12042;52.136;5.584;2022-10-29T11:06:24;14.68;;;6.93;;
23722;SDS011;12042;52.136;5.584;2022-10-29T11:08:52;14.32;;;7.05;;
23722;SDS011;12042;52.136;5.584;2022-10-29T11:11:26;14.13;;;7.38;;
23722;SDS011;12042;52.136;5.584;2022-10-29T11:14:01;13.45;;;6.60;;
23722;SDS011;12042;52.136;5.584;2022-10-29T11:17:00;15.52;;;7.28;;
23722;SDS011;12042;52.136;5.584;2022-10-29T11:19:43;9.60;;;6.68;;
23722;SDS011;12042;52.136;5.584;2022-10-29T11:25:03;13.65;;;6.55;;
23722;SDS011;12042;52.136;5.584;2022-10-29T11:28:02;12.57;;;6.55;;
23722;SDS011;12042;52.136;5.584;2022-10-29T11:30:49;11.18;;;7.18;;
23722;SDS011;12042;52.136;5.584;2022-10-29T11:33:30;14.05;;;6.90;;
23722;SDS011;12042;52.136;5.584;2022-10-29T11:36:16;12.23;;;6.45;;
23722;SDS011;12042;52.136;5.584;2022-10-29T11:38:58;16.13;;;6.85;;
23722;SDS011;12042;52.136;5.584;2022-10-29T11:41:39;9.13;;;6.70;;
23722;SDS011;12042;52.136;5.584;2022-10-29T11:44:11;15.63;;;6.93;;
23722;SDS011;12042;52.136;5.584;2022-10-29T11:49:47;15.10;;;6.97;;
23722;SDS011;12042;52.136;5.584;2022-10-29T11:58:16;14.15;;;6.85;;
23722;SDS011;12042;52.136;5.584;2022-10-29T12:09:00;17.33;;;7.97;;
23722;SDS011;12042;52.136;5.584;2022-10-29T12:11:48;18.67;;;7.60;;
23722;SDS011;12042;52.136;5.584;2022-10-29T12:14:42;16.15;;;7.20;;
23722;SDS011;12042;52.136;5.584;2022-10-29T12:17:24;16.23;;;7.63;;
23722;SDS011;12042;52.136;5.584;2022-10-29T12:20:23;16.48;;;7.95;;
23722;SDS011;12042;52.136;5.584;2022-10-29T12:23:08;17.65;;;7.93;;
23722;SDS011;12042;52.136;5.584;2022-10-29T12:28:39;18.83;;;8.25;;
23722;SDS011;12042;52.136;5.584;2022-10-29T12:39:10;21.67;;;8.65;;
23722;SDS011;12042;52.136;5.584;2022-10-29T12:41:44;21.63;;;9.07;;
23722;SDS011;12042;52.136;5.584;2022-10-29T12:47:07;14.35;;;9.15;;
23722;SDS011;12042;52.136;5.584;2022-10-29T12:52:52;18.10;;;9.05;;
23722;SDS011;12042;52.136;5.584;2022-10-29T12:55:26;16.20;;;9.02;;
23722;SDS011;12042;52.136;5.584;2022-10-29T12:57:53;19.40;;;9.60;;
23722;SDS011;12042;52.136;5.584;2022-10-29T13:02:49;21.08;;;9.50;;
23722;SDS011;12042;52.136;5.584;2022-10-29T13:05:35;18.63;;;9.85;;
23722;SDS011;12042;52.136;5.584;2022-10-29T13:15:35;17.77;;;9.52;;
23722;SDS011;12042;52.136;5.584;2022-10-29T13:18:54;18.55;;;9.55;;
23722;SDS011;12042;52.136;5.584;2022-10-29T13:21:03;18.00;;;9.65;;
23722;SDS011;12042;52.136;5.584;2022-10-29T13:23:30;17.13;;;9.70;;
23722;SDS011;12042;52.136;5.584;2022-10-29T13:25:58;18.40;;;9.80;;
23722;SDS011;12042;52.136;5.584;2022-10-29T13:35:58;18.65;;;9.82;;
23722;SDS011;12042;52.136;5.584;2022-10-29T13:39:21;17.30;;;8.75;;
23722;SDS011;12042;52.136;5.584;2022-10-29T13:41:40;16.15;;;8.75;;
23722;SDS011;12042;52.136;5.584;2022-10-29T13:44:11;16.25;;;8.63;;
23722;SDS011;12042;52.136;5.584;2022-10-29T13:49:42;19.92;;;9.20;;
23722;SDS011;12042;52.136;5.584;2022-10-29T13:57:42;14.05;;;7.88;;
23722;SDS011;12042;52.136;5.584;2022-10-29T14:00:32;19.38;;;8.60;;
23722;SDS011;12042;52.136;5.584;2022-10-29T14:03:11;17.50;;;8.18;;
23722;SDS011;12042;52.136;5.584;2022-10-29T14:05:42;12.65;;;7.38;;
23722;SDS011;12042;52.136;5.584;2022-10-29T14:08:16;21.38;;;7.82;;
23722;SDS011;12042;52.136;5.584;2022-10-29T14:10:45;16.80;;;7.38;;
23722;SDS011;12042;52.136;5.584;2022-10-29T14:15:38;17.77;;;8.25;;
23722;SDS011;12042;52.136;5.584;2022-10-29T14:18:23;20.83;;;7.15;;
23722;SDS011;12042;52.136;5.584;2022-10-29T14:23:53;19.35;;;7.07;;
23722;SDS011;12042;52.136;5.584;2022-10-29T14:26:18;17.42;;;6.65;;
23722;SDS011;12042;52.136;5.584;2022-10-29T14:28:44;17.23;;;7.03;;
23722;SDS011;12042;52.136;5.584;2022-10-29T14:31:17;19.23;;;7.63;;
23722;SDS011;12042;52.136;5.584;2022-10-29T14:33:53;14.23;;;6.30;;
23722;SDS011;12042;52.136;5.584;2022-10-29T14:38:56;14.27;;;7.20;;
23722;SDS011;12042;52.136;5.584;2022-10-29T14:41:26;11.02;;;7.15;;
23722;SDS011;12042;52.136;5.584;2022-10-29T14:44:01;14.90;;;7.10;;
23722;SDS011;12042;52.136;5.584;2022-10-29T14:46:34;19.02;;;7.90;;
23722;SDS011;12042;52.136;5.584;2022-10-29T14:51:48;16.08;;;8.13;;
23722;SDS011;12042;52.136;5.584;2022-10-29T14:54:26;18.77;;;9.10;;
23722;SDS011;12042;52.136;5.584;2022-10-29T14:56:58;19.63;;;9.95;;
23722;SDS011;12042;52.136;5.584;2022-10-29T14:59:28;16.55;;;9.75;;
23722;SDS011;12042;52.136;5.584;2022-10-29T15:01:57;20.98;;;10.27;;
23722;SDS011;12042;52.136;5.584;2022-10-29T15:04:25;16.42;;;9.45;;
23722;SDS011;12042;52.136;5.584;2022-10-29T15:07:12;17.55;;;9.52;;
23722;SDS011;12042;52.136;5.584;2022-10-29T15:09:40;17.73;;;9.60;;
23722;SDS011;12042;52.136;5.584;2022-10-29T15:12:19;17.40;;;9.68;;
23722;SDS011;12042;52.136;5.584;2022-10-29T15:14:49;14.75;;;8.88;;
23722;SDS011;12042;52.136;5.584;2022-10-29T15:17:18;12.63;;;8.57;;
23722;SDS011;12042;52.136;5.584;2022-10-29T15:19:50;22.38;;;8.77;;
23722;SDS011;12042;52.136;5.584;2022-10-29T15:22:20;17.75;;;8.20;;
23722;SDS011;12042;52.136;5.584;2022-10-29T15:25:00;12.82;;;7.60;;
23722;SDS011;12042;52.136;5.584;2022-10-29T15:27:26;16.83;;;8.43;;
23722;SDS011;12042;52.136;5.584;2022-10-29T15:29:52;14.70;;;7.80;;
23722;SDS011;12042;52.136;5.584;2022-10-29T15:32:18;11.20;;;6.80;;
23722;SDS011;12042;52.136;5.584;2022-10-29T15:34:45;16.40;;;7.75;;
23722;SDS011;12042;52.136;5.584;2022-10-29T15:40:01;17.20;;;7.82;;
23722;SDS011;12042;52.136;5.584;2022-10-29T15:42:30;19.35;;;9.07;;
23722;SDS011;12042;52.136;5.584;2022-10-29T15:47:32;18.40;;;10.00;;
23722;SDS011;12042;52.136;5.584;2022-10-29T15:50:00;18.55;;;11.02;;
23722;SDS011;12042;52.136;5.584;2022-10-29T15:52:31;17.75;;;10.55;;
23722;SDS011;12042;52.136;5.584;2022-10-29T15:55:01;20.55;;;10.73;;
23722;SDS011;12042;52.136;5.584;2022-10-29T15:57:29;17.83;;;10.07;;
23722;SDS011;12042;52.136;5.584;2022-10-29T15:59:55;18.65;;;9.32;;
23722;SDS011;12042;52.136;5.584;2022-10-29T16:02:22;16.05;;;9.20;;
23722;SDS011;12042;52.136;5.584;2022-10-29T16:04:49;18.40;;;9.10;;
23722;SDS011;12042;52.136;5.584;2022-10-29T16:07:15;19.65;;;9.23;;
23722;SDS011;12042;52.136;5.584;2022-10-29T16:09:42;18.38;;;8.45;;
23722;SDS011;12042;52.136;5.584;2022-10-29T16:12:11;15.68;;;9.25;;
23722;SDS011;12042;52.136;5.584;2022-10-29T16:14:38;16.25;;;9.10;;
23722;SDS011;12042;52.136;5.584;2022-10-29T16:17:08;14.98;;;8.48;;
23722;SDS011;12042;52.136;5.584;2022-10-29T16:19:44;20.45;;;9.30;;
23722;SDS011;12042;52.136;5.584;2022-10-29T16:22:11;14.10;;;9.43;;
23722;SDS011;12042;52.136;5.584;2022-10-29T16:24:38;18.00;;;8.45;;
23722;SDS011;12042;52.136;5.584;2022-10-29T16:27:10;19.40;;;9.70;;
23722;SDS011;12042;52.136;5.584;2022-10-29T16:29:41;13.18;;;8.35;;
23722;SDS011;12042;52.136;5.584;2022-10-29T16:32:08;14.13;;;8.20;;
23722;SDS011;12042;52.136;5.584;2022-10-29T16:34:41;17.95;;;8.25;;
23722;SDS011;12042;52.136;5.584;2022-10-29T16:37:14;14.55;;;8.07;;
23722;SDS011;12042;52.136;5.584;2022-10-29T16:39:41;15.23;;;8.52;;
23722;SDS011;12042;52.136;5.584;2022-10-29T16:42:26;14.93;;;8.38;;
23722;SDS011;12042;52.136;5.584;2022-10-29T16:44:53;16.33;;;8.63;;
23722;SDS011;12042;52.136;5.584;2022-10-29T16:47:19;12.93;;;9.63;;
23722;SDS011;12042;52.136;5.584;2022-10-29T16:49:45;14.18;;;8.60;;
23722;SDS011;12042;52.136;5.584;2022-10-29T16:52:11;18.23;;;9.43;;
23722;SDS011;12042;52.136;5.584;2022-10-29T16:54:37;18.67;;;9.82;;
23722;SDS011;12042;52.136;5.584;2022-10-29T16:57:02;20.27;;;9.05;;
23722;SDS011;12042;52.136;5.584;2022-10-29T16:59:28;17.50;;;9.35;;
23722;SDS011;12042;52.136;5.584;2022-10-29T17:01:54;14.27;;;8.73;;
23722;SDS011;12042;52.136;5.584;2022-10-29T17:04:19;18.00;;;8.93;;
23722;SDS011;12042;52.136;5.584;2022-10-29T17:06:45;19.35;;;9.13;;
23722;SDS011;12042;52.136;5.584;2022-10-29T17:09:11;16.23;;;8.50;;
23722;SDS011;12042;52.136;5.584;2022-10-29T17:11:36;17.33;;;9.27;;
23722;SDS011;12042;52.136;5.584;2022-10-29T17:14:02;18.10;;;8.40;;
23722;SDS011;12042;52.136;5.584;2022-10-29T17:16:28;16.67;;;8.18;;
23722;SDS011;12042;52.136;5.584;2022-10-29T17:18:53;20.05;;;8.32;;
23722;SDS011;12042;52.136;5.584;2022-10-29T17:21:20;16.15;;;8.07;;
23722;SDS011;12042;52.136;5.584;2022-10-29T17:23:46;18.42;;;9.07;;
23722;SDS011;12042;52.136;5.584;2022-10-29T17:26:11;18.77;;;9.32;;
23722;SDS011;12042;52.136;5.584;2022-10-29T17:28:37;17.77;;;9.20;;
23722;SDS011;12042;52.136;5.584;2022-10-29T17:31:04;17.90;;;8.57;;
23722;SDS011;12042;52.136;5.584;2022-10-29T17:33:30;18.55;;;8.60;;
23722;SDS011;12042;52.136;5.584;2022-10-29T17:36:05;17.17;;;8.43;;
23722;SDS011;12042;52.136;5.584;2022-10-29T17:38:34;17.02;;;8.48;;
23722;SDS011;12042;52.136;5.584;2022-10-29T17:40:59;20.27;;;9.18;;
23722;SDS011;12042;52.136;5.584;2022-10-29T17:43:25;20.08;;;10.77;;
23722;SDS011;12042;52.136;5.584;2022-10-29T17:45:50;23.15;;;12.25;;
23722;SDS011;12042;52.136;5.584;2022-10-29T17:48:16;22.50;;;12.57;;
23722;SDS011;12042;52.136;5.584;2022-10-29T17:50:52;19.73;;;11.98;;
23722;SDS011;12042;52.136;5.584;2022-10-29T17:53:19;21.63;;;11.63;;
23722;SDS011;12042;52.136;5.584;2022-10-29T17:55:44;19.77;;;11.98;;
23722;SDS011;12042;52.136;5.584;2022-10-29T17:58:10;20.30;;;10.35;;
23722;SDS011;12042;52.136;5.584;2022-10-29T18:00:35;19.05;;;10.00;;
23722;SDS011;12042;52.136;5.584;2022-10-29T18:03:01;20.13;;;9.98;;
23722;SDS011;12042;52.136;5.584;2022-10-29T18:05:27;15.80;;;9.25;;
23722;SDS011;12042;52.136;5.584;2022-10-29T18:07:54;16.52;;;9.60;;
23722;SDS011;12042;52.136;5.584;2022-10-29T18:10:20;18.08;;;9.13;;
23722;SDS011;12042;52.136;5.584;2022-10-29T18:12:45;16.30;;;9.05;;
23722;SDS011;12042;52.136;5.584;2022-10-29T18:15:11;15.25;;;9.13;;
23722;SDS011;12042;52.136;5.584;2022-10-29T18:17:37;16.38;;;9.30;;
23722;SDS011;12042;52.136;5.584;2022-10-29T18:20:04;17.83;;;9.10;;
23722;SDS011;12042;52.136;5.584;2022-10-29T18:22:30;17.23;;;8.90;;
23722;SDS011;12042;52.136;5.584;2022-10-29T18:24:56;16.17;;;9.02;;
23722;SDS011;12042;52.136;5.584;2022-10-29T18:27:22;17.90;;;8.80;;
23722;SDS011;12042;52.136;5.584;2022-10-29T18:29:47;17.88;;;9.73;;
23722;SDS011;12042;52.136;5.584;2022-10-29T18:32:13;25.80;;;10.52;;
23722;SDS011;12042;52.136;5.584;2022-10-29T18:34:39;20.20;;;10.48;;
23722;SDS011;12042;52.136;5.584;2022-10-29T18:37:05;18.15;;;10.80;;
23722;SDS011;12042;52.136;5.584;2022-10-29T18:39:31;18.30;;;10.15;;
23722;SDS011;12042;52.136;5.584;2022-10-29T18:41:57;19.83;;;10.05;;
23722;SDS011;12042;52.136;5.584;2022-10-29T18:44:23;22.00;;;10.05;;
23722;SDS011;12042;52.136;5.584;2022-10-29T18:46:50;20.13;;;10.27;;
23722;SDS011;12042;52.136;5.584;2022-10-29T18:49:16;18.73;;;10.05;;
23722;SDS011;12042;52.136;5.584;2022-10-29T18:51:41;18.40;;;9.57;;
23722;SDS011;12042;52.136;5.584;2022-10-29T18:54:08;19.83;;;9.85;;
23722;SDS011;12042;52.136;5.584;2022-10-29T18:56:35;23.38;;;10.10;;
23722;SDS011;12042;52.136;5.584;2022-10-29T18:59:00;20.88;;;9.65;;
23722;SDS011;12042;52.136;5.584;2022-10-29T19:01:27;20.20;;;10.18;;
23722;SDS011;12042;52.136;5.584;2022-10-29T19:03:55;23.33;;;10.02;;
23722;SDS011;12042;52.136;5.584;2022-10-29T19:06:24;20.23;;;10.13;;
23722;SDS011;12042;52.136;5.584;2022-10-29T19:08:51;17.38;;;9.50;;
23722;SDS011;12042;52.136;5.584;2022-10-29T19:11:18;15.00;;;10.23;;
23722;SDS011;12042;52.136;5.584;2022-10-29T19:14:05;21.58;;;9.95;;
23722;SDS011;12042;52.136;5.584;2022-10-29T19:16:33;15.60;;;10.18;;
23722;SDS011;12042;52.136;5.584;2022-10-29T19:19:00;16.10;;;9.32;;
23722;SDS011;12042;52.136;5.584;2022-10-29T19:21:28;17.67;;;9.77;;
23722;SDS011;12042;52.136;5.584;2022-10-29T19:23:54;21.52;;;10.65;;
23722;SDS011;12042;52.136;5.584;2022-10-29T19:26:22;24.83;;;10.40;;
23722;SDS011;12042;52.136;5.584;2022-10-29T19:28:48;18.73;;;9.88;;
23722;SDS011;12042;52.136;5.584;2022-10-29T19:31:18;21.52;;;10.50;;
23722;SDS011;12042;52.136;5.584;2022-10-29T19:33:50;19.13;;;9.80;;
23722;SDS011;12042;52.136;5.584;2022-10-29T19:36:17;16.75;;;9.88;;
23722;SDS011;12042;52.136;5.584;2022-10-29T19:38:43;17.90;;;9.98;;
23722;SDS011;12042;52.136;5.584;2022-10-29T19:41:09;22.17;;;11.00;;
23722;SDS011;12042;52.136;5.584;2022-10-29T19:43:36;20.05;;;9.85;;
23722;SDS011;12042;52.136;5.584;2022-10-29T19:46:06;26.67;;;10.02;;
23722;SDS011;12042;52.136;5.584;2022-10-29T19:48:33;19.17;;;10.05;;
23722;SDS011;12042;52.136;5.584;2022-10-29T19:50:58;18.35;;;10.00;;
23722;SDS011;12042;52.136;5.584;2022-10-29T19:53:24;17.90;;;10.05;;
23722;SDS011;12042;52.136;5.584;2022-10-29T19:55:51;20.38;;;10.23;;
23722;SDS011;12042;52.136;5.584;2022-10-29T19:58:18;15.65;;;9.65;;
23722;SDS011;12042;52.136;5.584;2022-10-29T20:00:45;24.25;;;10.57;;
23722;SDS011;12042;52.136;5.584;2022-10-29T20:03:11;22.88;;;10.10;;
23722;SDS011;12042;52.136;5.584;2022-10-29T20:05:38;16.75;;;9.98;;
23722;SDS011;12042;52.136;5.584;2022-10-29T20:08:04;20.75;;;10.27;;
23722;SDS011;12042;52.136;5.584;2022-10-29T20:10:30;18.75;;;10.40;;
23722;SDS011;12042;52.136;5.584;2022-10-29T20:12:55;19.02;;;10.80;;
23722;SDS011;12042;52.136;5.584;2022-10-29T20:15:21;21.25;;;10.40;;
23722;SDS011;12042;52.136;5.584;2022-10-29T20:17:49;17.83;;;10.82;;
23722;SDS011;12042;52.136;5.584;2022-10-29T20:20:15;23.10;;;10.43;;
23722;SDS011;12042;52.136;5.584;2022-10-29T20:22:41;21.75;;;10.45;;
23722;SDS011;12042;52.136;5.584;2022-10-29T20:25:07;20.77;;;10.75;;
23722;SDS011;12042;52.136;5.584;2022-10-29T20:27:32;20.98;;;11.38;;
23722;SDS011;12042;52.136;5.584;2022-10-29T20:29:58;17.40;;;10.43;;
23722;SDS011;12042;52.136;5.584;2022-10-29T20:32:23;19.15;;;10.52;;
23722;SDS011;12042;52.136;5.584;2022-10-29T20:34:49;22.33;;;10.55;;
23722;SDS011;12042;52.136;5.584;2022-10-29T20:37:16;23.55;;;11.15;;
23722;SDS011;12042;52.136;5.584;2022-10-29T20:39:41;21.38;;;10.65;;
23722;SDS011;12042;52.136;5.584;2022-10-29T20:42:07;27.23;;;11.27;;
23722;SDS011;12042;52.136;5.584;2022-10-29T20:44:33;19.33;;;10.32;;
23722;SDS011;12042;52.136;5.584;2022-10-29T20:46:58;22.17;;;10.32;;
23722;SDS011;12042;52.136;5.584;2022-10-29T20:49:24;18.98;;;10.50;;
23722;SDS011;12042;52.136;5.584;2022-10-29T20:51:49;21.85;;;10.70;;
23722;SDS011;12042;52.136;5.584;2022-10-29T20:54:15;22.45;;;11.07;;
23722;SDS011;12042;52.136;5.584;2022-10-29T20:56:41;19.70;;;10.60;;
23722;SDS011;12042;52.136;5.584;2022-10-29T20:59:07;14.75;;;10.07;;
23722;SDS011;12042;52.136;5.584;2022-10-29T21:01:33;16.67;;;10.77;;
23722;SDS011;12042;52.136;5.584;2022-10-29T21:03:59;22.70;;;11.32;;
23722;SDS011;12042;52.136;5.584;2022-10-29T21:06:25;24.42;;;11.05;;
23722;SDS011;12042;52.136;5.584;2022-10-29T21:08:50;21.77;;;11.70;;
23722;SDS011;12042;52.136;5.584;2022-10-29T21:11:17;24.38;;;12.02;;
23722;SDS011;12042;52.136;5.584;2022-10-29T21:13:44;22.20;;;10.90;;
23722;SDS011;12042;52.136;5.584;2022-10-29T21:16:20;22.60;;;11.63;;
23722;SDS011;12042;52.136;5.584;2022-10-29T21:18:47;25.55;;;11.95;;
23722;SDS011;12042;52.136;5.584;2022-10-29T21:21:15;26.83;;;11.68;;
23722;SDS011;12042;52.136;5.584;2022-10-29T21:23:41;35.20;;;15.38;;
23722;SDS011;12042;52.136;5.584;2022-10-29T21:26:08;23.67;;;14.77;;
23722;SDS011;12042;52.136;5.584;2022-10-29T21:28:37;25.17;;;12.98;;
23722;SDS011;12042;52.136;5.584;2022-10-29T21:31:03;21.83;;;12.25;;
23722;SDS011;12042;52.136;5.584;2022-10-29T21:33:28;28.60;;;12.32;;
23722;SDS011;12042;52.136;5.584;2022-10-29T21:35:54;23.88;;;12.40;;
23722;SDS011;12042;52.136;5.584;2022-10-29T21:38:20;26.20;;;12.75;;
23722;SDS011;12042;52.136;5.584;2022-10-29T21:40:47;21.90;;;11.60;;
23722;SDS011;12042;52.136;5.584;2022-10-29T21:43:13;21.02;;;11.70;;
23722;SDS011;12042;52.136;5.584;2022-10-29T21:45:40;21.67;;;11.40;;
23722;SDS011;12042;52.136;5.584;2022-10-29T21:48:06;21.98;;;12.13;;
23722;SDS011;12042;52.136;5.584;2022-10-29T21:50:32;21.48;;;11.93;;
23722;SDS011;12042;52.136;5.584;2022-10-29T21:52:57;20.13;;;11.65;;
23722;SDS011;12042;52.136;5.584;2022-10-29T21:55:23;24.30;;;11.77;;
23722;SDS011;12042;52.136;5.584;2022-10-29T21:57:48;22.67;;;11.98;;
23722;SDS011;12042;52.136;5.584;2022-10-29T22:00:15;22.38;;;11.70;;
23722;SDS011;12042;52.136;5.584;2022-10-29T22:02:40;21.65;;;11.68;;
